Time;durP1;ratioP1;P1;durP2;ratioP2;P2;SDS_P1;SDS_P2;PMS_P1;PMS_P2;Temp;Humidity;BMP_temperature;BMP_pressure;BME280_temperature;BME280_humidity;BME280_pressure;Samples;Min_cycle;Max_cycle;Signal;HPM_P1;HPM_P2
2023/07/30 00:01:50;;;;;;;0.05;0.05;;;;;;;22.56;60.28;100849.16;5029742;28;20026;-73
2023/07/30 00:04:16;;;;;;;0.00;0.00;;;;;;;22.59;60.72;100854.09;5030271;28;20037;-73
2023/07/30 00:06:41;;;;;;;0.10;0.10;;;;;;;22.81;60.06;100850.63;5029915;28;20041;-73
2023/07/30 00:09:06;;;;;;;0.10;0.10;;;;;;;22.75;59.55;100851.03;5029811;28;20037;-73
2023/07/30 00:11:32;;;;;;;0.10;0.10;;;;;;;22.45;60.78;100853.22;5029825;28;20036;-74
2023/07/30 00:13:57;;;;;;;0.10;0.10;;;;;;;22.24;61.75;100849.25;5028277;28;20496;-70
2023/07/30 00:16:25;;;;;;;0.10;0.10;;;;;;;22.31;61.60;100852.41;5030303;28;20037;-74
2023/07/30 00:18:51;;;;;;;0.10;0.10;;;;;;;22.37;61.15;100853.13;5030526;28;20065;-72
2023/07/30 00:21:16;;;;;;;0.10;0.10;;;;;;;22.28;62.09;100847.53;5029804;28;20449;-73
2023/07/30 00:23:41;;;;;;;0.10;0.10;;;;;;;22.26;61.72;100848.94;5011537;28;20037;-71
2023/07/30 00:26:07;;;;;;;0.10;0.10;;;;;;;22.53;60.65;100848.97;5029561;28;20487;-73
2023/07/30 00:28:32;;;;;;;0.10;0.10;;;;;;;21.96;62.74;100842.09;5029757;28;20088;-70
2023/07/30 00:30:57;;;;;;;0.10;0.10;;;;;;;22.50;60.91;100852.34;5029814;28;20131;-72
2023/07/30 00:33:23;;;;;;;0.10;0.10;;;;;;;22.42;61.80;100858.50;5029631;28;20033;-75
2023/07/30 00:35:51;;;;;;;0.10;0.10;;;;;;;22.16;62.24;100854.63;5030085;28;20095;-73
2023/07/30 00:38:18;;;;;;;0.10;0.10;;;;;;;22.67;60.67;100852.56;5029520;28;20037;-73
2023/07/30 00:40:44;;;;;;;0.10;0.10;;;;;;;22.27;62.11;100851.38;5021356;28;20033;-75
2023/07/30 00:43:09;;;;;;;0.10;0.10;;;;;;;22.93;59.98;100855.59;5011424;28;20034;-73
2023/07/30 00:45:36;;;;;;;0.10;0.10;;;;;;;22.18;61.98;100868.81;5029416;28;20125;-73
2023/07/30 00:48:01;;;;;;;0.20;0.20;;;;;;;22.01;62.13;100861.19;5029418;28;20044;-74
2023/07/30 00:50:27;;;;;;;0.13;0.13;;;;;;;22.32;60.84;100861.44;5029793;28;20037;-73
2023/07/30 00:52:52;;;;;;;0.10;0.10;;;;;;;22.66;60.10;100854.47;5029581;28;20041;-72
2023/07/30 00:55:18;;;;;;;0.05;0.05;;;;;;;22.57;61.00;100858.22;5029546;28;20035;-74
2023/07/30 00:57:45;;;;;;;0.10;0.10;;;;;;;21.94;62.43;100847.06;5029317;28;20034;-73
2023/07/30 01:00:11;;;;;;;0.10;0.10;;;;;;;21.53;64.61;100862.50;5029327;28;20041;-73
2023/07/30 01:02:36;;;;;;;0.10;0.10;;;;;;;21.69;63.14;100858.41;5029124;28;20378;-74
2023/07/30 01:05:05;;;;;;;0.20;0.20;;;;;;;21.97;61.93;100857.41;5029612;28;20040;-72
2023/07/30 01:07:31;;;;;;;0.10;0.10;;;;;;;21.67;63.17;100858.72;5029348;28;20038;-72
2023/07/30 01:09:57;;;;;;;0.20;0.20;;;;;;;21.62;63.43;100861.50;5029371;28;20033;-75
2023/07/30 01:12:23;;;;;;;0.10;0.10;;;;;;;21.86;62.45;100860.63;5028978;28;20045;-73
2023/07/30 01:14:50;;;;;;;0.10;0.10;;;;;;;22.42;60.13;100862.06;5029169;28;20513;-72
2023/07/30 01:17:16;;;;;;;0.10;0.10;;;;;;;22.54;60.35;100867.84;5029166;28;20091;-71
2023/07/30 01:19:41;;;;;;;0.13;0.13;;;;;;;22.21;61.23;100868.22;5029138;28;20204;-72
2023/07/30 01:22:07;;;;;;;0.08;0.08;;;;;;;22.38;60.31;100873.91;5029792;28;20080;-72
2023/07/30 01:24:32;;;;;;;0.10;0.10;;;;;;;22.45;60.54;100874.31;5029557;28;20034;-72
2023/07/30 01:27:05;;;;;;;0.10;0.10;;;;;;;22.06;61.85;100873.94;5029000;28;20141;-72
2023/07/30 01:29:42;;;;;;;0.10;0.10;;;;;;;22.58;60.17;100873.56;5028851;28;20033;-72
2023/07/30 01:32:11;;;;;;;0.10;0.10;;;;;;;21.99;61.98;100879.84;5028763;28;20042;-73
2023/07/30 01:34:39;;;;;;;0.10;0.10;;;;;;;22.39;59.81;100875.53;5029131;28;20033;-72
2023/07/30 01:37:08;;;;;;;0.10;0.10;;;;;;;22.22;61.18;100883.53;5029198;28;20025;-73
2023/07/30 01:39:36;;;;;;;0.10;0.10;;;;;;;21.82;61.98;100876.81;5010776;28;20387;-72
2023/07/30 01:42:02;;;;;;;0.10;0.10;;;;;;;22.17;60.83;100884.41;5028802;28;20033;-72
2023/07/30 01:44:27;;;;;;;0.10;0.10;;;;;;;21.79;61.87;100880.13;5028606;28;20083;-70
2023/07/30 01:46:52;;;;;;;0.10;0.10;;;;;;;21.76;62.39;100883.44;5028812;28;20056;-71
2023/07/30 01:49:18;;;;;;;0.10;0.10;;;;;;;21.57;62.52;100879.94;5029392;28;20312;-73
2023/07/30 01:51:43;;;;;;;0.10;0.10;;;;;;;22.15;60.25;100878.44;5028988;28;20057;-73
2023/07/30 01:54:09;;;;;;;0.10;0.10;;;;;;;21.58;63.18;100884.31;5022886;28;20037;-72
2023/07/30 01:56:34;;;;;;;0.10;0.10;;;;;;;21.82;62.32;100883.09;5029656;28;20385;-71
2023/07/30 01:58:59;;;;;;;0.10;0.10;;;;;;;21.28;63.50;100884.75;5031891;28;20521;-71
2023/07/30 02:01:25;;;;;;;0.10;0.10;;;;;;;22.35;60.56;100888.19;5015319;28;20021;-73
2023/07/30 02:03:50;;;;;;;0.10;0.10;;;;;;;22.46;60.57;100889.66;5032407;28;20114;-73
2023/07/30 02:06:15;;;;;;;0.10;0.10;;;;;;;22.05;61.84;100886.84;5032369;28;20042;-72
2023/07/30 02:08:41;;;;;;;0.10;0.10;;;;;;;21.92;62.17;100875.81;5032064;28;20033;-72
2023/07/30 02:11:06;;;;;;;0.10;0.10;;;;;;;22.43;60.65;100884.75;5032112;28;20040;-73
2023/07/30 02:13:31;;;;;;;0.10;0.10;;;;;;;21.82;61.94;100882.28;5032494;28;20029;-72
2023/07/30 02:15:57;;;;;;;0.10;0.10;;;;;;;21.91;62.48;100887.91;5032779;28;20037;-72
2023/07/30 02:18:22;;;;;;;0.10;0.10;;;;;;;22.19;61.69;100884.13;5032068;28;20045;-72
2023/07/30 02:20:48;;;;;;;0.10;0.10;;;;;;;21.49;64.72;100886.06;5032260;28;20509;-72
2023/07/30 02:23:16;;;;;;;0.10;0.10;;;;;;;22.05;62.22;100891.50;5032142;28;20048;-75
2023/07/30 02:25:42;;;;;;;0.10;0.10;;;;;;;21.50;64.37;100893.97;5032095;28;20107;-72
2023/07/30 02:28:07;;;;;;;0.15;0.15;;;;;;;21.99;63.01;100899.00;5032131;28;20049;-72
2023/07/30 02:30:33;;;;;;;0.10;0.10;;;;;;;22.36;61.65;100892.56;5031941;28;20046;-74
2023/07/30 02:32:59;;;;;;;0.10;0.10;;;;;;;22.02;63.12;100892.09;5032013;28;20037;-72
2023/07/30 02:35:24;;;;;;;0.10;0.10;;;;;;;21.86;63.83;100882.53;5031820;28;20067;-73
2023/07/30 02:37:50;;;;;;;0.10;0.10;;;;;;;22.20;62.53;100886.56;5031849;28;20083;-74
2023/07/30 02:40:15;;;;;;;0.10;0.10;;;;;;;22.08;64.12;100886.22;5032394;28;20307;-74
2023/07/30 02:42:41;;;;;;;0.20;0.20;;;;;;;21.70;63.98;100898.31;5031357;28;20498;-72
2023/07/30 02:45:06;;;;;;;0.10;0.10;;;;;;;21.34;65.92;100886.28;5031354;28;20113;-73
2023/07/30 02:47:32;;;;;;;0.20;0.20;;;;;;;21.37;66.71;100882.94;5031696;28;20068;-74
2023/07/30 02:49:57;;;;;;;0.10;0.10;;;;;;;21.47;66.09;100886.38;5031852;28;20033;-73
2023/07/30 02:52:22;;;;;;;0.10;0.10;;;;;;;21.61;66.47;100883.69;5032132;28;20083;-73
2023/07/30 02:54:48;;;;;;;0.10;0.10;;;;;;;21.45;66.11;100879.56;5031271;28;20034;-72
2023/07/30 02:57:13;;;;;;;0.10;0.10;;;;;;;22.00;64.23;100880.63;5031085;28;20030;-75
2023/07/30 02:59:40;;;;;;;0.10;0.10;;;;;;;21.84;66.01;100880.88;5013007;28;20056;-74
2023/07/30 03:02:12;;;;;;;0.20;0.20;;;;;;;20.96;69.86;100880.75;5031281;28;20508;-73
2023/07/30 03:04:37;;;;;;;0.10;0.10;;;;;;;21.79;66.39;100882.88;5031159;28;20438;-72
2023/07/30 03:07:03;;;;;;;0.10;0.10;;;;;;;21.74;66.83;100888.41;5031172;28;20064;-73
2023/07/30 03:09:28;;;;;;;0.10;0.10;;;;;;;21.40;67.62;100891.41;5013639;28;20040;-72
2023/07/30 03:11:54;;;;;;;0.10;0.10;;;;;;;21.55;67.99;100893.91;5031131;28;20068;-74
2023/07/30 03:14:22;;;;;;;0.15;0.15;;;;;;;21.50;68.37;100885.75;5031122;28;20044;-72
2023/07/30 03:16:48;;;;;;;0.10;0.10;;;;;;;22.23;65.64;100891.44;5031186;28;20039;-74
2023/07/30 03:19:14;;;;;;;0.10;0.10;;;;;;;21.80;67.51;100890.81;5031944;28;20398;-74
2023/07/30 03:21:40;;;;;;;0.10;0.10;;;;;;;21.84;67.28;100885.53;5031061;28;20049;-73
2023/07/30 03:24:05;;;;;;;0.10;0.10;;;;;;;22.10;66.19;100884.00;5031079;28;20042;-73
2023/07/30 03:26:31;;;;;;;0.10;0.10;;;;;;;21.89;66.42;100893.69;5030845;28;20037;-74
2023/07/30 03:28:56;;;;;;;0.10;0.10;;;;;;;21.90;66.43;100889.81;5030831;28;20079;-75
2023/07/30 03:31:21;;;;;;;0.10;0.10;;;;;;;21.93;66.09;100889.22;5031250;28;20038;-73
2023/07/30 03:33:47;;;;;;;0.10;0.10;;;;;;;21.86;67.03;100894.25;5030651;28;20033;-72
2023/07/30 03:36:13;;;;;;;0.10;0.10;;;;;;;21.60;68.35;100890.28;5030728;28;20037;-72
2023/07/30 03:38:39;;;;;;;0.10;0.10;;;;;;;21.36;70.05;100890.38;5030852;28;20487;-73
2023/07/30 03:41:06;;;;;;;0.10;0.10;;;;;;;21.53;69.14;100887.09;5030804;28;20037;-74
2023/07/30 03:43:31;;;;;;;0.10;0.10;;;;;;;21.40;69.21;100882.38;5030529;28;20017;-72
2023/07/30 03:45:57;;;;;;;0.15;0.15;;;;;;;22.01;66.99;100880.34;5030349;28;20377;-73
2023/07/30 03:48:22;;;;;;;0.10;0.10;;;;;;;21.13;70.15;100876.75;5030627;28;20043;-74
2023/07/30 03:50:48;;;;;;;0.10;0.10;;;;;;;21.93;66.63;100885.69;5030520;28;20033;-74
2023/07/30 03:53:13;;;;;;;0.13;0.13;;;;;;;21.12;70.52;100880.59;5030698;28;20033;-73
2023/07/30 03:55:40;;;;;;;0.10;0.10;;;;;;;21.49;69.99;100886.06;5030312;28;20036;-72
2023/07/30 03:58:05;;;;;;;0.10;0.10;;;;;;;21.84;68.52;100900.03;5030484;28;20509;-73
2023/07/30 04:00:31;;;;;;;0.10;0.10;;;;;;;22.09;67.67;100900.75;5029787;28;20045;-72
2023/07/30 04:02:56;;;;;;;0.10;0.10;;;;;;;21.28;69.85;100893.75;5030270;28;20033;-73
2023/07/30 04:05:22;;;;;;;0.10;0.10;;;;;;;21.67;69.19;100897.00;5033616;28;20037;-73
2023/07/30 04:07:47;;;;;;;0.10;0.10;;;;;;;21.95;67.90;100892.50;5030333;28;20358;-72
2023/07/30 04:10:12;;;;;;;0.20;0.20;;;;;;;21.93;68.64;100900.19;5037456;28;20453;-73
2023/07/30 04:12:38;;;;;;;0.10;0.10;;;;;;;22.06;67.68;100899.41;5043726;28;20036;-72
2023/07/30 04:15:04;;;;;;;0.10;0.10;;;;;;;22.14;67.46;100906.13;5048330;28;20037;-74
2023/07/30 04:17:30;;;;;;;0.10;0.10;;;;;;;21.58;70.03;100892.50;5029397;28;20043;-73
2023/07/30 04:19:56;;;;;;;0.10;0.10;;;;;;;22.65;65.51;100896.69;5029778;28;20096;-72
2023/07/30 04:22:21;;;;;;;0.10;0.10;;;;;;;21.86;68.91;100897.00;5030419;28;20026;-72
2023/07/30 04:24:47;;;;;;;0.10;0.10;;;;;;;21.88;69.34;100896.72;5029976;28;20034;-73
2023/07/30 04:27:12;;;;;;;0.10;0.10;;;;;;;21.82;69.93;100902.25;5029476;28;20034;-73
2023/07/30 04:29:37;;;;;;;0.10;0.10;;;;;;;22.24;67.72;100900.47;5030088;28;20030;-73
2023/07/30 04:32:03;;;;;;;0.10;0.10;;;;;;;21.78;69.93;100903.94;5012879;28;20033;-73
2023/07/30 04:34:28;;;;;;;0.10;0.10;;;;;;;22.47;67.45;100900.31;5010321;28;20043;-74
2023/07/30 04:36:54;;;;;;;0.10;0.10;;;;;;;22.06;68.86;100902.13;5010252;28;20041;-74
2023/07/30 04:39:19;;;;;;;0.10;0.10;;;;;;;22.15;68.68;100896.81;4992172;28;20374;-74
2023/07/30 04:41:45;;;;;;;0.10;0.10;;;;;;;22.23;68.59;100901.59;5009927;28;20048;-74
2023/07/30 04:44:10;;;;;;;0.10;0.10;;;;;;;22.60;67.26;100898.72;5009808;28;20387;-73
2023/07/30 04:46:35;;;;;;;0.10;0.10;;;;;;;21.90;69.90;100895.28;5009415;28;20052;-75
2023/07/30 04:49:06;;;;;;;0.13;0.13;;;;;;;21.69;71.95;100903.00;4990823;28;20029;-73
2023/07/30 04:51:32;;;;;;;0.10;0.10;;;;;;;21.60;71.37;100902.03;4990326;28;20038;-70
2023/07/30 04:53:57;;;;;;;0.10;0.10;;;;;;;21.70;71.75;100912.81;4990401;28;20513;-74
2023/07/30 04:56:22;;;;;;;0.10;0.10;;;;;;;22.09;70.35;100914.41;4989894;28;20146;-75
2023/07/30 04:58:48;;;;;;;0.10;0.10;;;;;;;21.27;73.65;100902.22;4990147;28;20018;-74
2023/07/30 05:01:13;;;;;;;0.10;0.10;;;;;;;21.85;71.98;100909.06;4972764;28;20034;-72
2023/07/30 05:03:39;;;;;;;0.10;0.10;;;;;;;21.75;71.63;100910.00;4988270;28;20034;-73
2023/07/30 05:06:04;;;;;;;0.10;0.10;;;;;;;22.45;69.85;100908.00;5002757;28;20041;-73
2023/07/30 05:08:30;;;;;;;0.10;0.10;;;;;;;21.64;73.14;100915.94;5008397;28;20046;-74
2023/07/30 05:10:55;;;;;;;0.10;0.10;;;;;;;22.24;70.74;100908.69;5009585;28;20411;-75
2023/07/30 05:13:20;;;;;;;0.10;0.10;;;;;;;21.63;74.02;100915.13;5009984;28;20029;-74
2023/07/30 05:15:46;;;;;;;0.10;0.10;;;;;;;22.06;71.97;100921.28;5009827;28;20436;-73
2023/07/30 05:18:13;;;;;;;0.08;0.08;;;;;;;22.00;72.24;100924.41;5009647;28;20046;-73
2023/07/30 05:20:38;;;;;;;0.10;0.10;;;;;;;22.08;71.32;100926.47;5009588;28;20406;-73
2023/07/30 05:23:04;;;;;;;0.13;0.13;;;;;;;22.14;71.60;100923.34;4991993;28;20030;-72
2023/07/30 05:25:29;;;;;;;0.10;0.10;;;;;;;21.81;72.86;100929.94;5009985;28;20034;-74
2023/07/30 05:27:55;;;;;;;0.10;0.10;;;;;;;22.63;70.68;100934.53;5009472;28;20514;-73
2023/07/30 05:30:20;;;;;;;0.10;0.10;;;;;;;22.39;70.84;100942.06;5011810;28;20034;-73
2023/07/30 05:32:45;;;;;;;0.10;0.10;;;;;;;21.96;72.29;100934.31;5033437;28;20069;-74
2023/07/30 05:35:11;;;;;;;0.10;0.10;;;;;;;22.20;72.52;100929.56;5027197;28;20029;-73
2023/07/30 05:37:36;;;;;;;0.10;0.10;;;;;;;22.24;71.65;100931.41;5013145;28;20033;-74
2023/07/30 05:40:03;;;;;;;0.10;0.10;;;;;;;22.35;71.53;100935.56;5013900;28;20032;-72
2023/07/30 05:42:28;;;;;;;0.10;0.10;;;;;;;22.65;70.08;100945.19;5012550;28;20034;-73
2023/07/30 05:44:53;;;;;;;0.10;0.10;;;;;;;22.70;68.97;100932.22;5029300;28;20037;-74
2023/07/30 05:47:19;;;;;;;0.10;0.10;;;;;;;22.30;71.07;100945.81;5032915;28;20044;-72
2023/07/30 05:49:44;;;;;;;0.10;0.10;;;;;;;22.46;70.38;100942.50;5032656;28;20773;-72
2023/07/30 05:52:09;;;;;;;0.10;0.10;;;;;;;23.12;68.42;100946.72;5033048;28;20026;-74
2023/07/30 05:54:35;;;;;;;0.00;0.00;;;;;;;22.70;69.12;100947.84;5014506;28;20076;-73
2023/07/30 05:57:00;;;;;;;0.10;0.10;;;;;;;22.91;68.81;100953.75;5015017;28;20038;-73
2023/07/30 05:59:25;;;;;;;0.10;0.10;;;;;;;23.10;68.33;100946.22;5032367;28;20083;-73
2023/07/30 06:01:51;;;;;;;0.10;0.10;;;;;;;23.32;66.87;100941.66;5032801;28;20029;-73
2023/07/30 06:04:16;;;;;;;0.10;0.10;;;;;;;23.86;64.52;100928.91;5033312;28;20176;-73
2023/07/30 06:06:42;;;;;;;0.00;0.00;;;;;;;23.06;68.08;100947.94;5032356;28;20357;-73
2023/07/30 06:09:07;;;;;;;0.10;0.10;;;;;;;23.43;65.97;100939.50;5032271;28;20033;-73
2023/07/30 06:11:33;;;;;;;0.10;0.10;;;;;;;23.31;67.17;100945.50;5032480;28;20025;-72
2023/07/30 06:13:58;;;;;;;0.10;0.10;;;;;;;23.94;64.92;100937.19;5032086;28;20033;-75
2023/07/30 06:16:24;;;;;;;0.10;0.10;;;;;;;24.11;64.42;100937.38;5032785;28;20034;-73
2023/07/30 06:18:49;;;;;;;0.00;0.00;;;;;;;23.31;66.54;100937.28;5032387;28;20397;-71
2023/07/30 06:21:15;;;;;;;0.00;0.00;;;;;;;24.31;63.63;100923.09;5032244;28;20037;-72
2023/07/30 06:23:40;;;;;;;0.00;0.00;;;;;;;23.94;64.88;100933.66;5032192;28;20509;-73
2023/07/30 06:26:05;;;;;;;0.00;0.00;;;;;;;23.99;64.94;100933.53;5032157;28;20033;-73
2023/07/30 06:28:31;;;;;;;0.00;0.00;;;;;;;24.49;62.82;100937.75;5032023;28;20030;-72
2023/07/30 06:31:00;;;;;;;0.10;0.10;;;;;;;24.43;63.28;100937.06;5032184;28;20061;-72
2023/07/30 06:33:25;;;;;;;0.10;0.10;;;;;;;24.91;61.29;100939.94;5031933;28;20127;-74
2023/07/30 06:35:51;;;;;;;0.05;0.05;;;;;;;25.00;60.92;100938.00;5031881;28;20048;-72
2023/07/30 06:38:16;;;;;;;0.00;0.00;;;;;;;25.10;61.04;100931.44;5031511;28;20033;-74
2023/07/30 06:40:41;;;;;;;0.10;0.10;;;;;;;24.40;61.84;100936.91;5031718;28;20025;-74
2023/07/30 06:43:07;;;;;;;0.00;0.00;;;;;;;25.35;59.85;100943.59;5031183;28;20063;-74
2023/07/30 06:45:32;;;;;;;0.00;0.00;;;;;;;24.92;61.50;100938.00;5032042;28;20041;-70
2023/07/30 06:47:57;;;;;;;0.00;0.00;;;;;;;24.36;62.34;100952.38;5031806;28;20091;-72
2023/07/30 06:50:23;;;;;;;0.00;0.00;;;;;;;23.75;62.91;100942.06;5031128;28;20504;-71
2023/07/30 06:52:48;;;;;;;0.05;0.05;;;;;;;24.92;59.56;100941.53;5031962;28;20088;-72
2023/07/30 06:55:13;;;;;;;0.10;0.10;;;;;;;24.96;59.03;100934.28;5031963;28;20438;-73
2023/07/30 06:57:39;;;;;;;0.00;0.00;;;;;;;24.62;60.14;100928.63;5031227;28;20087;-74
2023/07/30 07:00:05;;;;;;;0.05;0.05;;;;;;;23.90;62.30;100933.47;5013663;28;20053;-71
2023/07/30 07:02:30;;;;;;;0.00;0.00;;;;;;;23.95;62.20;100932.53;5031695;28;20045;-72
2023/07/30 07:04:55;;;;;;;0.00;0.00;;;;;;;25.17;58.40;100937.25;5031735;28;20030;-73
2023/07/30 07:07:21;;;;;;;0.00;0.00;;;;;;;24.62;59.43;100933.31;5032273;28;20038;-74
2023/07/30 07:09:46;;;;;;;0.00;0.00;;;;;;;24.03;60.07;100946.38;5031594;28;20052;-72
2023/07/30 07:12:12;;;;;;;0.00;0.00;;;;;;;25.31;56.41;100940.69;5013111;28;20087;-72
2023/07/30 07:14:37;;;;;;;0.00;0.00;;;;;;;25.75;55.60;100934.13;5031084;28;20489;-74
2023/07/30 07:17:03;;;;;;;0.00;0.00;;;;;;;25.32;56.34;100939.53;5030955;28;20040;-73
2023/07/30 07:19:28;;;;;;;0.00;0.00;;;;;;;24.83;58.59;100940.69;5031530;28;20025;-72
2023/07/30 07:21:54;;;;;;;0.00;0.00;;;;;;;24.75;58.31;100946.97;5031109;28;20493;-72
2023/07/30 07:24:19;;;;;;;0.00;0.00;;;;;;;26.03;55.79;100944.47;5030771;28;20045;-74
2023/07/30 07:26:44;;;;;;;0.10;0.10;;;;;;;25.09;58.95;100951.78;5031059;28;20033;-73
2023/07/30 07:29:10;;;;;;;0.00;0.00;;;;;;;24.67;59.91;100946.91;5030710;28;20029;-72
2023/07/30 07:31:35;;;;;;;0.10;0.10;;;;;;;24.51;59.71;100951.97;5000700;28;20332;-71
2023/07/30 07:34:01;;;;;;;0.00;0.00;;;;;;;25.18;58.22;100955.38;4991571;28;20443;-73
2023/07/30 07:36:26;;;;;;;0.00;0.00;;;;;;;25.25;57.10;100951.03;4991079;28;20042;-73
2023/07/30 07:38:52;;;;;;;0.00;0.00;;;;;;;24.69;58.89;100958.38;4991350;28;20038;-72
2023/07/30 07:41:18;;;;;;;0.00;0.00;;;;;;;25.53;56.82;100948.03;4973672;28;20026;-72
2023/07/30 07:43:44;;;;;;;0.00;0.00;;;;;;;25.22;57.70;100956.34;4997249;28;20049;-72
2023/07/30 07:46:13;;;;;;;0.00;0.00;;;;;;;25.37;57.94;100949.59;5011269;28;20033;-71
2023/07/30 07:48:43;;;;;;;0.00;0.00;;;;;;;25.95;55.71;100950.81;5010439;28;20409;-73
2023/07/30 07:51:11;;;;;;;0.00;0.00;;;;;;;25.22;57.75;100959.91;5010669;28;20515;-72
2023/07/30 07:53:38;;;;;;;0.00;0.00;;;;;;;24.29;60.56;100957.53;5009714;28;20041;-70
2023/07/30 07:56:03;;;;;;;0.00;0.00;;;;;;;24.39;60.83;100952.56;5019831;28;20034;-71
2023/07/30 07:58:29;;;;;;;0.10;0.10;;;;;;;24.93;58.21;100956.91;5015888;28;20025;-73
2023/07/30 08:00:55;;;;;;;0.00;0.00;;;;;;;25.71;54.77;100953.22;5007325;28;20030;-71
2023/07/30 08:03:21;;;;;;;0.00;0.00;;;;;;;25.96;54.22;100959.88;5015555;28;20029;-73
2023/07/30 08:05:47;;;;;;;0.00;0.00;;;;;;;25.22;57.01;100950.84;5009412;28;20030;-71
2023/07/30 08:08:12;;;;;;;0.00;0.00;;;;;;;24.77;59.14;100963.97;5015167;28;20037;-72
2023/07/30 08:10:39;;;;;;;0.00;0.00;;;;;;;24.45;58.95;100953.28;5021167;28;20037;-72
2023/07/30 08:13:05;;;;;;;0.00;0.00;;;;;;;24.46;59.12;100952.13;5016224;28;20132;-73
2023/07/30 08:15:30;;;;;;;0.00;0.00;;;;;;;24.75;58.85;100957.97;5008985;28;20108;-71
2023/07/30 08:17:55;;;;;;;0.00;0.00;;;;;;;24.89;57.15;100966.94;5009255;28;20045;-73
2023/07/30 08:20:21;;;;;;;0.00;0.00;;;;;;;24.80;58.64;100957.84;5009356;28;20038;-72
2023/07/30 08:22:46;;;;;;;0.00;0.00;;;;;;;24.63;58.78;100960.47;5008958;28;20470;-71
2023/07/30 08:25:12;;;;;;;0.00;0.00;;;;;;;24.65;57.83;100962.91;5009400;28;20030;-71
2023/07/30 08:27:37;;;;;;;0.00;0.00;;;;;;;24.24;59.51;100960.38;5008477;28;20536;-71
2023/07/30 08:30:03;;;;;;;0.00;0.00;;;;;;;24.06;60.01;100955.91;5009642;28;20396;-69
2023/07/30 08:32:28;;;;;;;0.00;0.00;;;;;;;24.78;58.06;100946.34;5024899;28;20093;-72
2023/07/30 08:34:54;;;;;;;0.00;0.00;;;;;;;24.35;59.11;100937.06;5027897;28;20029;-72
2023/07/30 08:37:19;;;;;;;0.00;0.00;;;;;;;24.18;59.40;100939.66;5029325;28;20013;-73
2023/07/30 08:39:44;;;;;;;0.00;0.00;;;;;;;25.32;56.51;100925.78;5028951;28;20532;-71
2023/07/30 08:42:10;;;;;;;0.00;0.00;;;;;;;24.52;59.78;100950.06;5028525;28;20034;-70
2023/07/30 08:44:35;;;;;;;0.00;0.00;;;;;;;24.06;60.05;100942.16;5027667;28;20753;-71
2023/07/30 08:47:01;;;;;;;0.10;0.10;;;;;;;24.04;60.32;100945.22;5024922;28;20038;-71
2023/07/30 08:49:32;;;;;;;0.00;0.00;;;;;;;24.81;58.49;100934.72;5029636;28;20045;-71
2023/07/30 08:51:58;;;;;;;0.00;0.00;;;;;;;24.86;56.82;100950.25;5029422;28;20037;-72
2023/07/30 08:54:25;;;;;;;0.00;0.00;;;;;;;24.66;57.92;100962.59;5010882;28;20502;-71
2023/07/30 08:56:51;;;;;;;0.00;0.00;;;;;;;23.99;59.11;100952.75;5029149;28;20430;-71
2023/07/30 08:59:19;;;;;;;0.00;0.00;;;;;;;23.60;59.82;100955.31;5028932;28;20048;-71
2023/07/30 09:01:46;;;;;;;0.08;0.08;;;;;;;23.96;58.61;100965.16;5019517;28;20326;-70
2023/07/30 09:04:15;;;;;;;0.00;0.00;;;;;;;24.21;57.84;100958.28;5028454;28;20033;-71
2023/07/30 09:06:40;;;;;;;0.00;0.00;;;;;;;23.95;58.38;100962.72;5029146;28;20175;-72
2023/07/30 09:09:09;;;;;;;0.00;0.00;;;;;;;23.73;59.85;100959.94;5010907;28;20533;-71
2023/07/30 09:11:34;;;;;;;0.00;0.00;;;;;;;24.01;58.94;100970.53;5029066;28;20293;-69
2023/07/30 09:14:01;;;;;;;0.00;0.00;;;;;;;23.31;61.28;100981.16;5026460;28;20110;-71
2023/07/30 09:16:27;;;;;;;0.00;0.00;;;;;;;23.63;60.77;100982.13;5034898;28;20120;-71
2023/07/30 09:18:55;;;;;;;0.10;0.10;;;;;;;23.84;60.42;100975.09;5025594;28;20405;-71
2023/07/30 09:21:34;;;;;;;0.00;0.00;;;;;;;24.23;58.60;100983.50;5028848;28;20049;-72
2023/07/30 09:24:06;;;;;;;0.00;0.00;;;;;;;23.92;59.20;100972.38;5034611;28;20389;-71
2023/07/30 09:26:46;;;;;;;0.00;0.00;;;;;;;23.37;60.70;100979.94;5029689;28;20030;-72
2023/07/30 09:29:12;;;;;;;0.00;0.00;;;;;;;23.04;60.62;100992.13;5029733;28;20120;-72
2023/07/30 09:31:56;;;;;;;0.00;0.00;;;;;;;24.39;55.72;100984.75;5030810;28;20125;-71
2023/07/30 09:34:24;;;;;;;0.00;0.00;;;;;;;24.56;56.03;100975.78;5026737;28;20116;-71
2023/07/30 09:36:53;;;;;;;0.00;0.00;;;;;;;23.90;59.14;100982.88;5033037;28;20091;-73
2023/07/30 09:39:21;;;;;;;0.00;0.00;;;;;;;24.13;58.66;100979.06;5042694;28;20069;-71
2023/07/30 09:41:47;;;;;;;0.00;0.00;;;;;;;23.83;59.59;101000.91;5039574;28;20049;-71
2023/07/30 09:44:16;;;;;;;0.00;0.00;;;;;;;23.93;59.76;100998.75;5031774;28;20044;-72
2023/07/30 09:46:43;;;;;;;0.00;0.00;;;;;;;24.40;58.95;101000.09;5043207;28;20117;-69
2023/07/30 09:49:09;;;;;;;0.00;0.00;;;;;;;24.82;57.33;100988.59;5017287;28;20044;-70
2023/07/30 09:51:39;;;;;;;0.00;0.00;;;;;;;24.21;59.01;101002.22;5027100;28;20033;-69
2023/07/30 09:54:07;;;;;;;0.00;0.00;;;;;;;24.73;57.92;101001.44;5031455;28;20049;-72
2023/07/30 09:56:33;;;;;;;0.00;0.00;;;;;;;24.53;58.51;101007.44;5032312;28;20506;-73
2023/07/30 09:58:59;;;;;;;0.00;0.00;;;;;;;23.83;61.41;101029.16;5029112;28;20084;-72
2023/07/30 10:01:28;;;;;;;0.00;0.00;;;;;;;23.93;64.09;101042.66;5027900;28;20404;-74
2023/07/30 10:03:58;;;;;;;0.00;0.00;;;;;;;23.63;63.61;101026.84;5026917;28;20036;-71
2023/07/30 10:06:31;;;;;;;0.10;0.10;;;;;;;23.78;63.53;101025.72;5026653;28;20072;-70
2023/07/30 10:09:00;;;;;;;0.00;0.00;;;;;;;22.73;64.44;101029.44;5025171;28;20129;-72
2023/07/30 10:11:27;;;;;;;0.00;0.00;;;;;;;22.64;64.04;101032.03;5013018;28;20041;-71
2023/07/30 10:13:53;;;;;;;0.10;0.10;;;;;;;22.85;63.53;101031.69;5026216;28;20448;-72
2023/07/30 10:16:18;;;;;;;0.00;0.00;;;;;;;23.23;62.69;101031.22;5027933;28;20043;-73
2023/07/30 10:18:44;;;;;;;0.00;0.00;;;;;;;23.97;60.94;101024.44;5031369;28;20037;-72
2023/07/30 10:21:21;;;;;;;0.10;0.10;;;;;;;24.20;61.00;101025.31;5030751;28;20517;-72
2023/07/30 10:23:57;;;;;;;0.00;0.00;;;;;;;23.35;62.19;101028.03;5022770;28;20391;-72
2023/07/30 10:26:28;;;;;;;0.00;0.00;;;;;;;23.53;62.99;101029.81;5029569;28;20036;-73
2023/07/30 10:29:14;;;;;;;0.00;0.00;;;;;;;24.05;61.26;101037.47;5031517;28;20046;-70
2023/07/30 10:31:41;;;;;;;0.00;0.00;;;;;;;23.42;62.92;101040.19;5029028;28;20060;-70
2023/07/30 10:34:08;;;;;;;0.00;0.00;;;;;;;24.20;60.73;101039.03;5013084;28;20125;-71
2023/07/30 10:36:40;;;;;;;0.00;0.00;;;;;;;23.32;63.12;101048.63;5031492;28;20704;-72
2023/07/30 10:39:16;;;;;;;0.10;0.10;;;;;;;23.93;61.26;101045.41;5031063;28;20055;-72
2023/07/30 10:41:48;;;;;;;0.10;0.10;;;;;;;22.93;63.17;101047.44;5029226;28;20057;-72
2023/07/30 10:44:25;;;;;;;0.00;0.00;;;;;;;24.01;60.01;101038.38;5030406;28;20356;-72
2023/07/30 10:46:53;;;;;;;0.00;0.00;;;;;;;24.56;57.96;101037.06;5030945;28;20121;-70
2023/07/30 10:49:18;;;;;;;0.10;0.10;;;;;;;24.55;58.85;101032.66;5031535;28;20071;-71
2023/07/30 10:51:44;;;;;;;0.00;0.00;;;;;;;25.39;56.98;101030.72;5031056;28;20444;-68
2023/07/30 10:54:09;;;;;;;0.00;0.00;;;;;;;24.20;58.93;101039.84;5031039;28;20371;-71
2023/07/30 10:56:37;;;;;;;0.00;0.00;;;;;;;24.48;55.51;101042.47;5030818;28;20525;-74
2023/07/30 10:59:07;;;;;;;0.08;0.08;;;;;;;24.52;54.98;101030.56;5037292;28;20036;-76
2023/07/30 11:01:40;;;;;;;0.00;0.00;;;;;;;24.83;53.12;101033.34;5051369;28;20091;-76
2023/07/30 11:04:08;;;;;;;0.00;0.00;;;;;;;25.25;52.46;101033.56;5042877;28;20037;-70
2023/07/30 11:06:33;;;;;;;0.00;0.00;;;;;;;25.79;52.41;101032.25;5030899;28;20099;-69
2023/07/30 11:08:59;;;;;;;0.03;0.03;;;;;;;26.50;49.51;101030.03;5031151;28;20497;-70
2023/07/30 11:11:25;;;;;;;0.00;0.00;;;;;;;25.88;50.36;101030.34;5030353;28;20048;-70
2023/07/30 11:13:50;;;;;;;0.00;0.00;;;;;;;26.78;49.54;101029.34;5030931;28;20042;-71
2023/07/30 11:16:16;;;;;;;0.00;0.00;;;;;;;25.57;50.33;101042.59;5031314;28;20099;-69
2023/07/30 11:18:42;;;;;;;0.00;0.00;;;;;;;25.87;49.45;101036.97;5030781;28;20419;-71
2023/07/30 11:21:10;;;;;;;0.00;0.00;;;;;;;26.19;49.56;101030.22;5031084;28;20497;-70